createdAt,value
2019-03-13T00:04:09.733Z,11.59
2019-03-13T00:09:12.202Z,11.49
2019-03-13T00:14:14.653Z,11.31
2019-03-13T00:19:17.116Z,11.18
2019-03-13T00:24:19.561Z,11.05
2019-03-13T00:29:22.008Z,11.04
2019-03-13T00:34:24.450Z,10.94
2019-03-13T00:39:26.909Z,10.86
2019-03-13T00:44:29.373Z,10.80
2019-03-13T00:49:31.843Z,10.73
2019-03-13T00:54:34.298Z,10.64
2019-03-13T00:59:36.741Z,10.57
2019-03-13T01:04:39.190Z,10.52
2019-03-13T01:09:41.627Z,10.48
2019-03-13T01:14:44.406Z,10.37
2019-03-13T01:19:46.787Z,10.44
2019-03-13T01:24:49.247Z,10.18
2019-03-13T01:29:51.687Z,9.91
2019-03-13T01:34:56.927Z,9.72
2019-03-13T01:39:59.367Z,9.54
2019-03-13T01:45:01.804Z,9.43
2019-03-13T01:50:07.034Z,9.36
2019-03-13T01:55:09.473Z,9.47
2019-03-13T02:00:11.928Z,9.71
2019-03-13T02:05:14.398Z,9.73
2019-03-13T02:10:16.842Z,9.70
2019-03-13T02:15:19.277Z,9.63
2019-03-13T02:20:21.739Z,9.64
2019-03-13T02:25:24.188Z,9.63
2019-03-13T02:30:26.643Z,9.71
2019-03-13T02:35:29.133Z,9.66
2019-03-13T02:40:31.618Z,9.74
2019-03-13T02:45:34.072Z,9.75
2019-03-13T02:50:36.525Z,9.79
2019-03-13T02:55:38.993Z,9.79
2019-03-13T03:00:53.566Z,9.78
2019-03-13T03:05:56.031Z,9.74
2019-03-13T03:10:58.495Z,9.69
2019-03-13T03:16:00.946Z,9.68
2019-03-13T03:21:03.401Z,9.61
2019-03-13T03:26:05.914Z,9.53
2019-03-13T03:31:08.305Z,9.54
2019-03-13T03:36:10.752Z,9.52
2019-03-13T03:41:13.195Z,9.45
2019-03-13T03:46:15.649Z,9.20
2019-03-13T03:51:18.111Z,9.17
2019-03-13T03:56:20.570Z,9.21
2019-03-13T04:01:23.023Z,9.32
2019-03-13T04:06:25.474Z,9.45
2019-03-13T04:11:27.964Z,9.50
2019-03-13T04:16:30.424Z,9.56
2019-03-13T04:21:32.865Z,9.51
2019-03-13T04:26:35.410Z,9.49
2019-03-13T04:31:37.898Z,9.31
2019-03-13T04:36:40.343Z,9.13
2019-03-13T04:41:42.812Z,8.89
2019-03-13T04:46:45.296Z,8.74
2019-03-13T04:51:47.757Z,8.64
2019-03-13T04:56:50.215Z,8.62
2019-03-13T05:01:52.668Z,8.80
2019-03-13T05:06:55.128Z,8.67
2019-03-13T05:11:57.601Z,8.64
2019-03-13T05:17:00.109Z,8.65
2019-03-13T05:22:02.585Z,8.58
2019-03-13T05:27:05.050Z,8.63
2019-03-13T05:32:07.508Z,8.70
2019-03-13T05:37:10.027Z,8.86
2019-03-13T05:42:12.506Z,8.97
2019-03-13T05:47:14.963Z,8.97
2019-03-13T05:52:17.455Z,8.98
2019-03-13T05:57:19.931Z,9.01
2019-03-13T06:02:22.390Z,8.93
2019-03-13T06:07:24.848Z,8.89
2019-03-13T06:12:27.317Z,8.86
2019-03-13T06:17:29.791Z,8.87
2019-03-13T06:22:32.247Z,8.91
2019-03-13T06:27:34.702Z,8.81
2019-03-13T06:32:37.176Z,8.94
2019-03-13T06:37:39.638Z,9.09
2019-03-13T06:42:42.134Z,9.45
2019-03-13T06:47:44.596Z,9.58
2019-03-13T06:52:47.048Z,9.83
2019-03-13T06:57:49.499Z,9.98
2019-03-13T07:03:10.125Z,9.73
2019-03-13T07:08:12.611Z,9.87
2019-03-13T07:13:15.061Z,9.99
2019-03-13T07:18:20.456Z,10.19
2019-03-13T07:23:25.950Z,10.26
2019-03-13T07:28:46.259Z,10.87
2019-03-13T07:33:49.124Z,10.71
2019-03-13T07:39:09.847Z,10.19
2019-03-13T07:44:18.452Z,11.04
2019-03-13T07:49:33.138Z,12.48
2019-03-13T07:54:41.673Z,15.40
2019-03-13T07:59:46.899Z,22.32
2019-03-13T08:04:52.261Z,26.74
2019-03-13T08:09:57.550Z,25.42
2019-03-13T08:15:15.274Z,24.02
2019-03-13T08:20:26.657Z,29.80
2019-03-13T08:25:31.888Z,32.22
2019-03-13T08:30:52.464Z,31.59
2019-03-13T08:36:12.860Z,21.43
2019-03-13T08:41:18.243Z,16.56
2019-03-13T08:46:20.833Z,14.92
2019-03-13T08:51:32.443Z,15.75
2019-03-13T08:56:38.017Z,15.59
2019-03-13T09:01:43.390Z,16.14
2019-03-13T09:06:45.889Z,14.47
2019-03-13T09:12:06.623Z,13.90
2019-03-13T09:17:21.372Z,13.54
2019-03-13T09:22:29.420Z,12.86
2019-03-13T09:27:31.883Z,12.44
2019-03-13T09:32:37.282Z,15.20
2019-03-13T09:37:39.737Z,15.62
2019-03-13T09:42:57.288Z,16.94
2019-03-13T09:48:08.573Z,15.95
2019-03-13T09:53:20.058Z,14.83
2019-03-13T09:58:25.437Z,14.27
2019-03-13T10:03:34.035Z,16.03
2019-03-13T10:08:39.406Z,17.57
2019-03-13T10:13:53.747Z,19.12
2019-03-13T10:18:56.212Z,21.33
2019-03-13T10:24:07.904Z,22.58
2019-03-13T10:29:12.879Z,23.99
2019-03-13T10:34:30.652Z,21.81
2019-03-13T10:39:51.163Z,29.01
2019-03-13T10:44:59.810Z,23.63
2019-03-13T10:50:07.941Z,23.83
2019-03-13T10:55:28.705Z,18.14
2019-03-13T11:00:34.218Z,16.26
2019-03-13T11:05:39.647Z,14.47
2019-03-13T11:10:54.224Z,15.81
2019-03-13T11:16:15.028Z,15.28
2019-03-13T11:21:29.683Z,13.50
2019-03-13T11:26:35.033Z,14.07
2019-03-13T11:31:46.464Z,18.93
2019-03-13T11:37:04.199Z,20.76
2019-03-13T11:42:06.680Z,19.51
2019-03-13T11:47:12.267Z,18.09
2019-03-13T11:52:20.731Z,17.94
2019-03-13T11:57:41.286Z,17.60
2019-03-13T12:02:43.756Z,17.29
2019-03-13T12:07:49.171Z,17.07
2019-03-13T12:13:10.660Z,16.41
2019-03-13T12:18:18.266Z,15.60
2019-03-13T12:23:20.730Z,15.57
2019-03-13T12:28:25.689Z,15.96
2019-03-13T12:33:35.481Z,15.01
2019-03-13T12:38:36.886Z,15.52
2019-03-13T12:43:39.360Z,15.86
2019-03-13T12:48:47.777Z,15.74
2019-03-13T12:53:50.247Z,15.53
2019-03-13T12:59:11.040Z,15.77
2019-03-13T13:04:32.039Z,15.80
2019-03-13T13:09:49.726Z,15.74
2019-03-13T13:14:55.144Z,15.87
2019-03-13T13:19:57.618Z,16.53
2019-03-13T13:25:00.257Z,16.75
2019-03-13T13:30:02.559Z,15.50
2019-03-13T13:35:05.032Z,14.70
2019-03-13T13:40:10.224Z,13.86
2019-03-13T13:45:27.790Z,13.43
2019-03-13T13:50:30.281Z,14.04
2019-03-13T13:55:32.741Z,14.66
2019-03-13T14:00:35.252Z,13.71
2019-03-13T14:05:40.735Z,13.53
2019-03-13T14:10:40.200Z,13.02
2019-03-13T14:15:42.696Z,12.92
2019-03-13T14:20:45.344Z,12.74
2019-03-13T14:25:47.799Z,12.56
2019-03-13T14:30:50.280Z,12.81
2019-03-13T14:35:52.754Z,12.44
2019-03-13T14:40:55.226Z,12.16
2019-03-13T14:45:57.703Z,12.21
2019-03-13T14:51:00.174Z,12.24
2019-03-13T14:56:02.643Z,12.20
2019-03-13T15:01:05.103Z,12.28
2019-03-13T15:06:07.561Z,12.10
2019-03-13T15:11:10.040Z,12.06
2019-03-13T15:16:12.500Z,11.82
2019-03-13T15:21:14.966Z,11.77
2019-03-13T15:26:17.442Z,11.61
2019-03-13T15:31:19.911Z,12.00
2019-03-13T15:36:22.410Z,12.10
2019-03-13T15:41:24.945Z,12.09
2019-03-13T15:46:27.426Z,12.07
2019-03-13T15:51:29.903Z,12.19
2019-03-13T15:56:32.368Z,12.31
2019-03-13T16:01:34.830Z,12.42
2019-03-13T16:06:37.322Z,12.64
2019-03-13T16:11:39.796Z,12.52
2019-03-13T16:16:42.278Z,12.34
2019-03-13T16:21:44.758Z,12.11
2019-03-13T16:26:47.229Z,12.12
2019-03-13T16:31:49.693Z,11.83
2019-03-13T16:36:52.139Z,11.59
2019-03-13T16:41:54.611Z,11.47
2019-03-13T16:46:57.066Z,11.39
2019-03-13T16:51:59.556Z,11.26
2019-03-13T16:57:02.049Z,11.23
2019-03-13T17:02:04.509Z,11.22
2019-03-13T17:07:06.974Z,11.16
2019-03-13T17:12:09.444Z,11.16
2019-03-13T17:17:11.918Z,11.07
2019-03-13T17:22:14.379Z,11.08
2019-03-13T17:27:16.860Z,11.02
2019-03-13T17:32:19.339Z,11.04
2019-03-13T17:37:21.812Z,10.87
2019-03-13T17:42:24.291Z,10.74
2019-03-13T17:47:26.761Z,10.59
2019-03-13T17:52:29.231Z,10.49
2019-03-13T17:57:31.701Z,10.38
2019-03-13T18:02:34.188Z,10.24
2019-03-13T18:07:36.650Z,9.94
2019-03-13T18:12:39.132Z,9.75
2019-03-13T18:17:41.633Z,9.66
2019-03-13T18:22:44.106Z,9.59
2019-03-13T18:27:46.568Z,9.60
2019-03-13T18:32:49.029Z,9.45
2019-03-13T18:37:51.489Z,9.42
2019-03-13T18:42:53.963Z,9.23
2019-03-13T18:47:56.454Z,9.13
2019-03-13T18:52:58.925Z,9.01
2019-03-13T18:58:01.380Z,9.02
2019-03-13T19:03:03.874Z,8.95
2019-03-13T19:08:06.356Z,9.06
2019-03-13T19:13:08.833Z,9.17
2019-03-13T19:18:11.330Z,9.23
2019-03-13T19:23:14.449Z,9.31
2019-03-13T19:28:16.318Z,9.32
2019-03-13T19:33:18.787Z,9.30
2019-03-13T19:38:21.268Z,9.28
2019-03-13T19:43:23.747Z,9.24
2019-03-13T19:48:26.219Z,9.17
2019-03-13T19:53:28.700Z,9.07
2019-03-13T19:58:31.158Z,9.01
2019-03-13T20:03:33.605Z,8.97
2019-03-13T20:08:36.109Z,8.90
2019-03-13T20:13:38.614Z,8.93
2019-03-13T20:18:41.097Z,8.96
2019-03-13T20:23:43.587Z,8.94
2019-03-13T20:28:46.413Z,8.99
2019-03-13T20:33:48.535Z,8.99
2019-03-13T20:38:50.996Z,9.01
2019-03-13T20:43:53.535Z,9.05
2019-03-13T20:48:55.993Z,9.01
2019-03-13T20:53:58.756Z,9.03
2019-03-13T20:59:01.227Z,8.96
2019-03-13T21:04:03.693Z,8.92
2019-03-13T21:09:06.206Z,8.97
2019-03-13T21:14:08.684Z,8.98
2019-03-13T21:19:11.168Z,8.96
2019-03-13T21:24:13.647Z,9.05
2019-03-13T21:29:16.181Z,9.05
2019-03-13T21:34:18.651Z,9.03
2019-03-13T21:39:21.157Z,8.99
2019-03-13T21:44:23.728Z,9.00
2019-03-13T21:49:26.203Z,8.93
2019-03-13T21:54:28.690Z,8.97
2019-03-13T21:59:31.181Z,8.98
2019-03-13T22:04:33.650Z,8.96
2019-03-13T22:09:36.118Z,8.87
2019-03-13T22:14:38.833Z,8.87
2019-03-13T22:19:41.058Z,8.82
2019-03-13T22:24:43.538Z,8.80
2019-03-13T22:29:45.997Z,8.80
2019-03-13T22:34:48.460Z,8.71
2019-03-13T22:39:50.938Z,8.71
2019-03-13T22:44:53.418Z,8.65
2019-03-13T22:49:55.888Z,8.63
2019-03-13T22:54:58.355Z,8.61
2019-03-13T23:00:00.820Z,8.67
2019-03-13T23:05:03.291Z,8.73
2019-03-13T23:10:14.726Z,8.73
2019-03-13T23:15:17.184Z,8.75
2019-03-13T23:20:19.642Z,8.70
2019-03-13T23:25:22.121Z,8.71
2019-03-13T23:30:24.578Z,8.72
2019-03-13T23:35:27.034Z,8.72
2019-03-13T23:40:29.495Z,8.71
2019-03-13T23:45:31.962Z,8.68
2019-03-13T23:50:34.413Z,8.75
2019-03-13T23:55:36.883Z,8.73
